createdAt,value
2019-02-26T00:01:18.523Z,8.00
2019-02-26T00:03:45.820Z,7.90
2019-02-26T00:06:16.123Z,7.80
2019-02-26T00:08:47.180Z,7.70
2019-02-26T00:11:15.011Z,7.70
2019-02-26T00:13:43.478Z,7.70
2019-02-26T00:16:14.964Z,7.90
2019-02-26T00:18:42.722Z,7.90
2019-02-26T00:21:11.334Z,7.90
2019-02-26T00:23:39.773Z,7.80
2019-02-26T00:26:10.467Z,7.80
2019-02-26T00:28:39.150Z,7.80
2019-02-26T00:31:08.575Z,7.80
2019-02-26T00:33:37.184Z,7.90
2019-02-26T00:36:07.183Z,7.80
2019-02-26T00:38:37.567Z,7.80
2019-02-26T00:41:06.155Z,7.80
2019-02-26T00:43:36.734Z,7.80
2019-02-26T00:46:05.597Z,7.80
2019-02-26T00:48:35.984Z,7.80
2019-02-26T00:51:05.275Z,7.80
2019-02-26T00:53:33.709Z,7.70
2019-02-26T00:56:03.251Z,7.70
2019-02-26T00:58:36.981Z,7.80
2019-02-26T01:01:02.520Z,7.80
2019-02-26T01:03:31.334Z,7.80
2019-02-26T01:06:01.467Z,7.70
2019-02-26T01:08:29.957Z,7.70
2019-02-26T01:10:59.204Z,7.60
2019-02-26T01:13:30.087Z,7.60
2019-02-26T01:15:58.784Z,7.60
2019-02-26T01:18:28.863Z,7.60
2019-02-26T01:20:59.674Z,7.50
2019-02-26T01:23:28.949Z,7.50
2019-02-26T01:25:57.665Z,7.50
2019-02-26T01:28:27.100Z,7.50
2019-02-26T01:30:57.935Z,7.60
2019-02-26T01:33:29.682Z,7.60
2019-02-26T01:35:58.000Z,7.70
2019-02-26T01:38:27.506Z,7.60
2019-02-26T01:40:56.063Z,7.60
2019-02-26T01:43:24.882Z,7.60
2019-02-26T01:45:55.407Z,7.60
2019-02-26T01:48:23.971Z,7.60
2019-02-26T01:50:54.539Z,7.60
2019-02-26T01:53:23.721Z,7.60
2019-02-26T01:55:52.382Z,7.70
2019-02-26T01:58:20.853Z,7.60
2019-02-26T02:00:49.659Z,7.60
2019-02-26T02:03:18.634Z,7.60
2019-02-26T02:05:50.282Z,7.60
2019-02-26T02:08:22.069Z,7.50
2019-02-26T02:10:49.625Z,7.50
2019-02-26T02:13:19.569Z,7.50
2019-02-26T02:15:48.013Z,7.50
2019-02-26T02:18:18.222Z,7.50
2019-02-26T02:20:46.989Z,7.60
2019-02-26T02:23:15.805Z,7.60
2019-02-26T02:25:45.674Z,7.60
2019-02-26T02:28:14.241Z,7.50
2019-02-26T02:30:42.691Z,7.50
2019-02-26T02:33:11.295Z,7.50
2019-02-26T02:35:39.772Z,7.50
2019-02-26T02:38:08.321Z,7.50
2019-02-26T02:40:38.056Z,7.40
2019-02-26T02:43:09.802Z,7.40
2019-02-26T02:45:37.182Z,7.30
2019-02-26T02:48:06.233Z,7.30
2019-02-26T02:50:35.822Z,7.30
2019-02-26T02:53:04.273Z,7.40
2019-02-26T02:55:32.813Z,7.40
2019-02-26T02:58:01.270Z,7.40
2019-02-26T03:00:32.250Z,7.40
2019-02-26T03:02:59.957Z,7.40
2019-02-26T03:05:31.317Z,7.30
2019-02-26T03:07:58.602Z,7.30
2019-02-26T03:10:30.809Z,7.40
2019-02-26T03:13:00.092Z,7.40
2019-02-26T03:15:30.059Z,7.30
2019-02-26T03:17:57.993Z,7.20
2019-02-26T03:20:28.721Z,7.20
2019-02-26T03:22:57.091Z,7.30
2019-02-26T03:25:26.995Z,7.30
2019-02-26T03:27:55.985Z,7.20
2019-02-26T03:30:32.072Z,7.30
2019-02-26T03:33:00.364Z,7.30
2019-02-26T03:35:25.151Z,7.20
2019-02-26T03:37:55.644Z,7.10
2019-02-26T03:40:54.710Z,7.20
2019-02-26T03:43:22.861Z,7.10
2019-02-26T03:45:51.359Z,7.10
2019-02-26T03:48:20.539Z,7.10
2019-02-26T03:50:49.130Z,7.20
2019-02-26T03:53:17.646Z,7.20
2019-02-26T03:55:46.459Z,7.20
2019-02-26T03:58:14.893Z,7.20
2019-02-26T04:00:43.982Z,7.30
2019-02-26T04:03:15.136Z,7.20
2019-02-26T04:05:44.361Z,7.20
2019-02-26T04:08:12.802Z,7.20
2019-02-26T04:10:41.277Z,7.20
2019-02-26T04:13:09.725Z,7.30
2019-02-26T04:15:38.600Z,7.20
2019-02-26T04:18:07.385Z,7.20
2019-02-26T04:20:35.820Z,7.20
2019-02-26T04:23:04.248Z,7.10
2019-02-26T04:25:36.588Z,7.10
2019-02-26T04:28:17.334Z,7.10
2019-02-26T04:30:57.990Z,7.00
2019-02-26T04:33:53.002Z,7.00
2019-02-26T04:36:26.756Z,7.00
2019-02-26T04:39:23.593Z,7.00
2019-02-26T04:41:55.113Z,7.00
2019-02-26T04:44:50.059Z,6.90
2019-02-26T04:47:18.891Z,6.90
2019-02-26T04:49:48.546Z,6.90
2019-02-26T04:52:17.540Z,7.00
2019-02-26T04:54:46.438Z,7.00
2019-02-26T04:57:14.882Z,7.00
2019-02-26T04:59:44.093Z,6.90
2019-02-26T05:02:12.839Z,6.90
2019-02-26T05:04:42.209Z,6.90
2019-02-26T05:07:13.435Z,6.70
2019-02-26T05:09:41.423Z,6.70
2019-02-26T05:12:10.222Z,6.70
2019-02-26T05:14:38.665Z,6.70
2019-02-26T05:17:07.118Z,6.80
2019-02-26T05:19:36.476Z,6.90
2019-02-26T05:22:07.021Z,6.90
2019-02-26T05:24:35.696Z,6.90
2019-02-26T05:27:18.615Z,6.80
2019-02-26T05:29:48.803Z,6.80
2019-02-26T05:32:16.734Z,6.80
2019-02-26T05:34:47.380Z,6.80
2019-02-26T05:37:15.376Z,6.80
2019-02-26T05:39:45.853Z,6.80
2019-02-26T05:42:14.018Z,6.70
2019-02-26T05:44:42.777Z,6.80
2019-02-26T05:47:13.013Z,6.80
2019-02-26T05:49:43.402Z,6.80
2019-02-26T05:52:11.610Z,6.80
2019-02-26T05:54:40.057Z,6.70
2019-02-26T05:57:10.800Z,6.80
2019-02-26T05:59:39.167Z,6.80
2019-02-26T06:02:10.585Z,6.80
2019-02-26T06:04:40.843Z,6.90
2019-02-26T06:07:08.918Z,6.80
2019-02-26T06:09:37.346Z,6.80
2019-02-26T06:12:05.838Z,6.80
2019-02-26T06:14:36.333Z,6.80
2019-02-26T06:17:04.440Z,6.80
2019-02-26T06:19:42.333Z,6.80
2019-02-26T06:22:16.688Z,6.80
2019-02-26T06:24:42.106Z,6.80
2019-02-26T06:27:13.202Z,6.80
2019-02-26T06:29:41.096Z,6.80
2019-02-26T06:32:12.272Z,6.80
2019-02-26T06:34:40.786Z,6.80
2019-02-26T06:37:20.650Z,6.80
2019-02-26T06:39:52.622Z,6.80
2019-02-26T06:42:19.395Z,6.70
2019-02-26T06:44:49.432Z,6.80
2019-02-26T06:47:18.463Z,6.90
2019-02-26T06:49:48.422Z,6.90
2019-02-26T06:52:18.035Z,7.00
2019-02-26T06:54:50.584Z,7.00
2019-02-26T06:57:16.698Z,7.10
2019-02-26T06:59:45.162Z,7.00
2019-02-26T07:02:13.605Z,7.10
2019-02-26T07:04:42.094Z,7.10
2019-02-26T07:07:14.166Z,7.20
2019-02-26T07:09:41.928Z,7.20
2019-02-26T07:12:11.202Z,7.20
2019-02-26T07:14:39.678Z,7.30
2019-02-26T07:17:08.471Z,7.30
2019-02-26T07:19:38.143Z,7.40
2019-02-26T07:22:08.292Z,7.40
2019-02-26T07:24:38.586Z,7.40
2019-02-26T07:27:09.139Z,7.40
2019-02-26T07:29:40.154Z,7.40
2019-02-26T07:32:08.077Z,7.50
2019-02-26T07:34:36.535Z,7.50
2019-02-26T07:37:06.501Z,7.50
2019-02-26T07:39:35.565Z,7.60
2019-02-26T07:42:04.263Z,7.60
2019-02-26T07:44:32.700Z,7.50
2019-02-26T07:47:03.664Z,7.60
2019-02-26T07:49:31.341Z,7.60
2019-02-26T07:52:00.354Z,7.70
2019-02-26T07:54:30.086Z,7.70
2019-02-26T07:57:00.595Z,7.80
2019-02-26T07:59:32.337Z,7.90
2019-02-26T08:02:01.235Z,8.00
2019-02-26T08:04:31.781Z,8.10
2019-02-26T08:07:01.903Z,8.20
2019-02-26T08:09:30.329Z,8.30
2019-02-26T08:11:58.769Z,8.40
2019-02-26T08:14:27.241Z,8.50
2019-02-26T08:16:56.271Z,8.60
2019-02-26T08:19:29.625Z,8.70
2019-02-26T08:21:57.134Z,8.70
2019-02-26T08:24:25.804Z,8.70
2019-02-26T08:26:54.232Z,8.80
2019-02-26T08:29:24.523Z,8.80
2019-02-26T08:31:54.470Z,8.80
2019-02-26T08:34:23.063Z,8.90
2019-02-26T08:36:51.510Z,8.90
2019-02-26T08:39:19.958Z,8.90
2019-02-26T08:42:06.244Z,8.90
2019-02-26T08:44:34.698Z,8.90
2019-02-26T08:47:06.443Z,8.90
2019-02-26T08:49:35.339Z,9.00
2019-02-26T08:52:04.239Z,9.10
2019-02-26T08:54:33.205Z,9.20
2019-02-26T08:57:02.882Z,9.30
2019-02-26T08:59:31.325Z,9.40
2019-02-26T09:01:59.778Z,9.50
2019-02-26T09:04:28.296Z,9.60
2019-02-26T09:06:57.632Z,9.70
2019-02-26T09:09:28.218Z,9.70
2019-02-26T09:11:58.853Z,9.80
2019-02-26T09:14:32.136Z,9.80
2019-02-26T09:16:59.690Z,9.90
2019-02-26T09:19:30.339Z,10.00
2019-02-26T09:21:58.806Z,10.10
2019-02-26T09:24:27.248Z,10.20
2019-02-26T09:26:57.577Z,10.30
2019-02-26T09:29:25.917Z,10.30
2019-02-26T09:31:54.374Z,10.40
2019-02-26T09:34:26.028Z,10.50
2019-02-26T09:36:55.531Z,10.60
2019-02-26T09:39:23.498Z,10.60
2019-02-26T09:41:51.966Z,10.60
2019-02-26T09:44:20.432Z,10.70
2019-02-26T09:46:48.873Z,10.70
2019-02-26T09:49:17.629Z,10.60
2019-02-26T09:51:46.076Z,10.60
2019-02-26T09:54:15.991Z,10.70
2019-02-26T09:56:45.427Z,10.70
2019-02-26T09:59:14.801Z,10.70
2019-02-26T10:01:43.329Z,10.70
2019-02-26T10:04:11.849Z,10.70
2019-02-26T10:06:42.415Z,10.70
2019-02-26T10:09:13.100Z,10.80
2019-02-26T10:11:42.449Z,10.90
2019-02-26T10:14:12.694Z,10.90
2019-02-26T10:16:41.424Z,11.10
2019-02-26T10:19:10.645Z,11.20
2019-02-26T10:21:42.406Z,11.40
2019-02-26T10:24:10.321Z,11.50
2019-02-26T10:26:40.972Z,11.80
2019-02-26T10:29:09.006Z,12.00
2019-02-26T10:31:40.394Z,12.30
2019-02-26T10:34:10.062Z,12.30
2019-02-26T10:36:43.122Z,12.40
2019-02-26T10:39:08.625Z,12.40
2019-02-26T10:41:39.371Z,12.50
2019-02-26T10:44:07.431Z,12.60
2019-02-26T10:46:37.168Z,12.70
2019-02-26T10:49:06.602Z,12.90
2019-02-26T10:51:35.073Z,13.10
2019-02-26T10:54:05.803Z,13.30
2019-02-26T10:56:38.586Z,13.50
2019-02-26T10:59:06.865Z,13.70
2019-02-26T11:01:34.297Z,13.80
2019-02-26T11:04:04.536Z,14.00
2019-02-26T11:06:35.797Z,14.20
2019-02-26T11:09:04.719Z,14.30
2019-02-26T11:11:35.105Z,14.30
2019-02-26T11:14:05.328Z,14.40
2019-02-26T11:16:35.849Z,14.60
2019-02-26T11:19:04.353Z,14.80
2019-02-26T11:21:33.740Z,15.10
2019-02-26T11:24:03.661Z,15.20
2019-02-26T11:26:33.463Z,15.20
2019-02-26T11:29:02.952Z,15.10
2019-02-26T11:31:31.496Z,15.00
2019-02-26T11:34:02.891Z,14.80
2019-02-26T11:36:31.273Z,14.80
2019-02-26T11:39:02.280Z,14.70
2019-02-26T11:41:31.762Z,14.60
2019-02-26T11:44:01.326Z,14.60
2019-02-26T11:46:30.599Z,14.70
2019-02-26T11:49:00.360Z,14.60
2019-02-26T11:51:36.883Z,14.50
2019-02-26T11:54:00.060Z,14.50
2019-02-26T11:56:29.229Z,14.50
2019-02-26T11:58:57.720Z,14.50
2019-02-26T12:01:27.046Z,14.60
2019-02-26T12:03:58.644Z,14.70
2019-02-26T12:06:26.189Z,14.90
2019-02-26T12:08:54.932Z,15.20
2019-02-26T12:11:23.489Z,15.40
2019-02-26T12:13:53.186Z,15.80
2019-02-26T12:16:22.218Z,16.00
2019-02-26T12:18:50.666Z,16.30
2019-02-26T12:21:19.118Z,16.60
2019-02-26T12:23:47.591Z,16.80
2019-02-26T12:26:18.617Z,17.10
2019-02-26T12:28:46.204Z,17.40
2019-02-26T12:31:14.684Z,17.70
2019-02-26T12:33:43.129Z,17.90
2019-02-26T12:36:11.581Z,18.00
2019-02-26T12:38:40.117Z,17.80
2019-02-26T12:41:12.318Z,17.70
2019-02-26T12:43:42.704Z,17.60
2019-02-26T12:46:09.454Z,17.40
2019-02-26T12:48:40.628Z,17.40
2019-02-26T12:51:08.077Z,17.30
2019-02-26T12:53:40.448Z,17.30
2019-02-26T12:56:08.969Z,17.40
2019-02-26T12:58:38.786Z,17.50
2019-02-26T13:01:08.181Z,17.50
2019-02-26T13:03:39.836Z,17.60
2019-02-26T13:06:11.419Z,17.80
2019-02-26T13:08:39.884Z,18.10
2019-02-26T13:11:07.691Z,18.40
2019-02-26T13:13:36.546Z,18.60
2019-02-26T13:16:05.058Z,18.80
2019-02-26T13:18:33.907Z,18.90
2019-02-26T13:21:03.700Z,19.00
2019-02-26T13:23:32.925Z,19.00
2019-02-26T13:26:03.730Z,19.00
2019-02-26T13:28:31.939Z,19.10
2019-02-26T13:31:02.358Z,19.30
2019-02-26T13:33:35.210Z,19.40
2019-02-26T13:36:04.597Z,19.50
2019-02-26T13:38:40.669Z,19.50
2019-02-26T13:41:27.243Z,19.60
2019-02-26T13:43:32.378Z,19.60
2019-02-26T13:46:00.856Z,19.50
2019-02-26T13:48:29.402Z,19.50
2019-02-26T13:50:58.525Z,19.50
2019-02-26T13:53:26.974Z,19.50
2019-02-26T13:55:55.446Z,19.50
2019-02-26T13:58:23.849Z,19.50
2019-02-26T14:00:52.342Z,19.40
2019-02-26T14:03:20.765Z,19.20
2019-02-26T14:05:49.252Z,19.10
2019-02-26T14:08:17.715Z,19.00
2019-02-26T14:10:46.556Z,18.80
2019-02-26T14:13:15.073Z,18.60
2019-02-26T14:15:43.820Z,18.40
2019-02-26T14:18:12.294Z,18.20
2019-02-26T14:20:40.743Z,18.10
2019-02-26T14:23:09.186Z,17.80
2019-02-26T14:25:37.650Z,17.60
2019-02-26T14:28:06.171Z,17.40
2019-02-26T14:30:34.715Z,17.30
2019-02-26T14:33:03.503Z,17.20
2019-02-26T14:35:32.062Z,17.00
2019-02-26T14:38:00.562Z,16.90
2019-02-26T14:40:29.014Z,16.80
2019-02-26T14:42:57.482Z,16.70
2019-02-26T14:45:28.254Z,16.60
2019-02-26T14:47:56.734Z,16.50
2019-02-26T14:50:26.343Z,16.50
2019-02-26T14:52:55.092Z,16.60
2019-02-26T14:55:23.647Z,16.60
2019-02-26T14:57:52.409Z,16.70
2019-02-26T15:00:57.142Z,16.70
2019-02-26T15:03:18.129Z,16.70
2019-02-26T15:05:46.714Z,16.70
2019-02-26T15:08:15.157Z,16.60
2019-02-26T15:10:43.602Z,16.50
2019-02-26T15:13:12.083Z,16.30
2019-02-26T15:15:40.974Z,16.10
2019-02-26T15:18:09.506Z,15.90
2019-02-26T15:20:38.096Z,15.80
2019-02-26T15:23:06.583Z,15.70
2019-02-26T15:25:35.173Z,15.50
2019-02-26T15:28:05.331Z,15.40
2019-02-26T15:30:33.968Z,15.30
2019-02-26T15:33:10.805Z,15.20
2019-02-26T15:35:33.325Z,15.10
2019-02-26T15:38:02.101Z,15.00
2019-02-26T15:40:30.554Z,15.00
2019-02-26T15:42:59.370Z,14.90
2019-02-26T15:45:30.208Z,14.90
2019-02-26T15:47:58.753Z,14.90
2019-02-26T15:50:27.261Z,15.00
2019-02-26T15:52:55.710Z,15.10
2019-02-26T15:55:28.006Z,15.10
2019-02-26T15:57:56.336Z,15.10
2019-02-26T16:00:25.798Z,15.00
2019-02-26T16:02:59.005Z,14.90
2019-02-26T16:05:45.294Z,14.80
2019-02-26T16:08:13.834Z,14.60
2019-02-26T16:10:42.281Z,14.50
2019-02-26T16:13:10.732Z,14.40
2019-02-26T16:15:39.781Z,14.30
2019-02-26T16:18:08.294Z,14.10
2019-02-26T16:20:36.880Z,14.00
2019-02-26T16:23:05.422Z,13.90
2019-02-26T16:25:33.899Z,13.80
2019-02-26T16:28:02.835Z,13.60
2019-02-26T16:30:31.551Z,13.60
2019-02-26T16:33:00.085Z,13.50
2019-02-26T16:35:28.622Z,13.50
2019-02-26T16:37:57.077Z,13.40
2019-02-26T16:40:25.531Z,13.30
2019-02-26T16:42:53.998Z,13.20
2019-02-26T16:45:29.174Z,13.20
2019-02-26T16:47:57.709Z,13.10
2019-02-26T16:50:31.389Z,13.00
2019-02-26T16:53:01.077Z,12.90
2019-02-26T16:55:30.252Z,12.80
2019-02-26T16:58:02.352Z,12.80
2019-02-26T17:00:31.230Z,12.70
2019-02-26T17:03:00.741Z,12.70
2019-02-26T17:05:29.942Z,12.70
2019-02-26T17:07:58.844Z,12.60
2019-02-26T17:10:30.210Z,12.50
2019-02-26T17:13:01.760Z,12.40
2019-02-26T17:15:33.632Z,12.30
2019-02-26T17:18:02.204Z,12.20
2019-02-26T17:20:30.724Z,12.20
2019-02-26T17:22:59.274Z,12.10
2019-02-26T17:25:29.043Z,12.10
2019-02-26T17:27:58.066Z,11.90
2019-02-26T17:30:26.936Z,12.00
2019-02-26T17:32:55.748Z,11.90
2019-02-26T17:35:26.696Z,11.80
2019-02-26T17:37:54.356Z,11.80
2019-02-26T17:40:23.865Z,11.70
2019-02-26T17:42:54.252Z,11.70
2019-02-26T17:45:31.608Z,11.60
2019-02-26T17:48:00.127Z,11.60
2019-02-26T17:50:43.389Z,11.50
2019-02-26T17:53:11.897Z,11.50
2019-02-26T17:55:40.722Z,11.40
2019-02-26T17:58:10.584Z,11.40
2019-02-26T18:00:41.097Z,11.40
2019-02-26T18:03:09.574Z,11.30
2019-02-26T18:05:50.418Z,11.20
2019-02-26T18:08:08.563Z,11.10
2019-02-26T18:10:37.005Z,11.10
2019-02-26T18:13:05.984Z,11.10
2019-02-26T18:15:34.558Z,11.20
2019-02-26T18:18:02.979Z,11.10
2019-02-26T18:20:31.482Z,11.10
2019-02-26T18:23:00.775Z,11.00
2019-02-26T18:25:29.476Z,11.00
2019-02-26T18:27:58.250Z,10.90
2019-02-26T18:30:30.898Z,10.90
2019-02-26T18:32:59.553Z,10.90
2019-02-26T18:35:28.306Z,10.90
2019-02-26T18:37:56.836Z,10.90
2019-02-26T18:40:27.913Z,10.90
2019-02-26T18:42:55.532Z,10.90
2019-02-26T18:45:29.023Z,10.80
2019-02-26T18:47:58.113Z,10.80
2019-02-26T18:50:29.435Z,10.70
2019-02-26T18:52:58.595Z,10.70
2019-02-26T18:55:28.342Z,10.60
2019-02-26T18:57:57.618Z,10.70
2019-02-26T19:00:34.239Z,10.70
2019-02-26T19:03:02.726Z,10.70
2019-02-26T19:05:31.407Z,10.60
2019-02-26T19:07:59.863Z,10.60
2019-02-26T19:10:28.333Z,10.50
2019-02-26T19:12:56.780Z,10.50
2019-02-26T19:15:35.301Z,10.40
2019-02-26T19:18:03.753Z,10.40
2019-02-26T19:20:37.282Z,10.40
2019-02-26T19:23:05.752Z,10.40
2019-02-26T19:25:34.346Z,10.30
2019-02-26T19:28:02.823Z,10.30
2019-02-26T19:30:31.270Z,10.20
2019-02-26T19:33:00.046Z,10.20
2019-02-26T19:35:28.519Z,10.20
2019-02-26T19:38:01.865Z,10.20
2019-02-26T19:40:45.798Z,10.10
2019-02-26T19:43:14.246Z,10.10
2019-02-26T19:45:44.850Z,10.10
2019-02-26T19:48:12.889Z,10.00
2019-02-26T19:50:45.426Z,10.00
2019-02-26T19:53:11.661Z,10.40
2019-02-26T19:55:42.027Z,10.90
2019-02-26T19:58:10.503Z,11.40
2019-02-26T20:00:38.963Z,11.60
2019-02-26T20:03:07.481Z,11.50
2019-02-26T20:05:36.082Z,11.30
2019-02-26T20:08:05.285Z,11.00
2019-02-26T20:10:34.680Z,10.80
2019-02-26T20:13:04.096Z,10.60
2019-02-26T20:15:33.270Z,10.40
2019-02-26T20:18:01.847Z,10.40
2019-02-26T20:20:30.585Z,10.30
2019-02-26T20:22:59.239Z,10.20
2019-02-26T20:25:27.868Z,10.20
2019-02-26T20:28:01.942Z,10.10
2019-02-26T20:30:26.794Z,10.10
2019-02-26T20:32:55.491Z,10.10
2019-02-26T20:35:24.109Z,10.30
2019-02-26T20:37:53.089Z,10.50
2019-02-26T20:40:23.154Z,10.50
2019-02-26T20:42:51.943Z,10.50
2019-02-26T20:45:22.689Z,10.30
2019-02-26T20:47:51.562Z,10.20
2019-02-26T20:50:22.386Z,10.10
2019-02-26T20:52:51.104Z,10.00
2019-02-26T20:55:24.259Z,10.00
2019-02-26T20:57:52.967Z,9.90
2019-02-26T21:00:24.930Z,9.90
2019-02-26T21:02:52.544Z,9.90
2019-02-26T21:05:21.635Z,10.00
2019-02-26T21:07:50.263Z,10.00
2019-02-26T21:10:20.222Z,10.40
2019-02-26T21:12:49.473Z,10.30
2019-02-26T21:15:22.912Z,10.10
2019-02-26T21:17:51.553Z,9.90
2019-02-26T21:20:20.341Z,9.80
2019-02-26T21:22:48.958Z,9.80
2019-02-26T21:25:17.675Z,9.70
2019-02-26T21:27:46.299Z,9.70
2019-02-26T21:30:20.700Z,9.60
2019-02-26T21:32:49.770Z,9.60
2019-02-26T21:35:20.508Z,9.60
2019-02-26T21:37:49.092Z,9.60
2019-02-26T21:40:17.858Z,9.50
2019-02-26T21:42:46.730Z,9.30
2019-02-26T21:45:18.974Z,9.30
2019-02-26T21:47:47.932Z,9.30
2019-02-26T21:50:16.911Z,9.30
2019-02-26T21:52:59.156Z,9.40
2019-02-26T21:55:17.378Z,9.40
2019-02-26T21:57:46.002Z,9.30
2019-02-26T22:00:20.187Z,9.30
2019-02-26T22:02:51.956Z,9.20
2019-02-26T22:05:19.508Z,9.20
2019-02-26T22:07:52.096Z,9.10
2019-02-26T22:10:19.920Z,9.10
2019-02-26T22:12:48.606Z,9.10
2019-02-26T22:15:17.687Z,9.10
2019-02-26T22:17:46.341Z,9.10
2019-02-26T22:20:22.061Z,9.10
2019-02-26T22:22:46.980Z,9.10
2019-02-26T22:25:17.357Z,9.10
2019-02-26T22:27:46.165Z,9.20
2019-02-26T22:30:22.147Z,9.20
2019-02-26T22:32:49.920Z,9.20
2019-02-26T22:35:18.538Z,9.10
2019-02-26T22:37:47.195Z,9.10
2019-02-26T22:40:16.269Z,9.00
2019-02-26T22:42:44.919Z,9.00
2019-02-26T22:45:16.939Z,8.90
2019-02-26T22:47:45.582Z,8.70
2019-02-26T22:50:15.337Z,8.70
2019-02-26T22:52:44.229Z,8.70
2019-02-26T22:55:16.570Z,8.60
2019-02-26T22:57:47.245Z,8.70
2019-02-26T23:00:35.435Z,8.70
2019-02-26T23:03:04.765Z,8.70
2019-02-26T23:05:33.397Z,8.70
2019-02-26T23:08:02.048Z,8.80
2019-02-26T23:10:30.810Z,8.80
2019-02-26T23:12:59.580Z,8.80
2019-02-26T23:15:28.363Z,8.80
2019-02-26T23:17:58.374Z,8.80
2019-02-26T23:20:27.933Z,8.80
2019-02-26T23:22:56.651Z,8.70
2019-02-26T23:25:25.289Z,8.70
2019-02-26T23:27:53.986Z,8.70
2019-02-26T23:30:24.922Z,8.70
2019-02-26T23:32:53.037Z,8.60
2019-02-26T23:35:22.153Z,8.60
2019-02-26T23:37:50.851Z,8.70
2019-02-26T23:40:20.544Z,8.60
2019-02-26T23:42:49.854Z,8.60
2019-02-26T23:45:18.622Z,8.50
2019-02-26T23:47:47.319Z,8.60
2019-02-26T23:50:16.510Z,8.50
2019-02-26T23:52:45.706Z,8.60
2019-02-26T23:55:14.711Z,8.60
2019-02-26T23:57:43.363Z,8.60
